LPPS/PXO METAR and TAF weather

Enter ICAO airport designator
Station Type Date Time Source
LPPS METAR 2019/07/20 05:30 UTC NOAA

LPPS 200530Z 01009KT 9999 SCT012 21/18 Q1020


Station Type Date Time Source
LPPS Decoded METAR 2019/07/20 05:30 UTC NOAA

Porto Santo, Portugal (LPPS) 33-04N 016-21W 82M
Jul 20, 2019 - 01:30 AM EDT / 2019.07.20 0530 UTC
Wind: from the N (010 degrees) at 10 MPH (9 KT):0
Visibility: greater than 7 mile(s):0
Sky conditions: partly cloudy
Temperature: 69 F (21 C)
Dew Point: 64 F (18 C)
Relative Humidity: 82%
Pressure (altimeter): 30.12 in. Hg (1020 hPa)
ob: LPPS 200530Z 01009KT 9999 SCT012 21/18 Q1020
cycle: 5

Station Type Date Time Source
LPPS TAF 2019/07/20 06:18 UTC NOAA

TAF LPPS 200510Z 2006/2112 01013KT 9999 SCT015
TEMPO 2006/2112 SCT012 BKN030

Example: see airport list